Time;durP1;ratioP1;P1;durP2;ratioP2;P2;SDS_P1;SDS_P2;PMS_P1;PMS_P2;Temp;Humidity;BMP_temperature;BMP_pressure;BME280_temperature;BME280_humidity;BME280_pressure;Samples;Min_cycle;Max_cycle;Signal;HPM_P1;HPM_P2
2023/08/15 00:02:16;;;;;;;5.35;4.95;;;21.90;99.90;;;;;;5033378;28;20637;-72
2023/08/15 00:04:42;;;;;;;7.35;5.18;;;21.90;99.90;;;;;;5033784;28;20222;-72
2023/08/15 00:07:08;;;;;;;5.55;5.05;;;21.80;99.90;;;;;;5033748;28;20522;-72
2023/08/15 00:09:33;;;;;;;5.40;4.82;;;21.80;99.90;;;;;;5034191;28;20164;-72
2023/08/15 00:11:59;;;;;;;5.13;4.40;;;21.70;99.90;;;;;;5033324;28;20171;-72
2023/08/15 00:14:25;;;;;;;7.18;4.78;;;21.70;99.90;;;;;;5033582;28;20233;-72
2023/08/15 00:16:51;;;;;;;5.97;4.90;;;21.60;99.90;;;;;;5033615;28;20226;-72
2023/08/15 00:19:17;;;;;;;7.57;5.45;;;21.60;99.90;;;;;;5033554;28;20179;-72
2023/08/15 00:21:42;;;;;;;4.82;4.43;;;21.60;99.90;;;;;;5029079;28;20203;-72
2023/08/15 00:24:08;;;;;;;6.85;6.15;;;21.50;99.90;;;;;;5032048;28;20188;-72
2023/08/15 00:26:34;;;;;;;6.10;4.85;;;21.50;99.90;;;;;;5033578;28;20163;-72
2023/08/15 00:28:59;;;;;;;5.65;5.15;;;21.50;99.90;;;;;;5033207;28;20179;-72
2023/08/15 00:31:25;;;;;;;5.65;5.15;;;21.50;99.90;;;;;;5033227;28;20187;-72
2023/08/15 00:33:51;;;;;;;5.63;5.13;;;21.50;99.90;;;;;;5033301;28;20665;-72
2023/08/15 00:36:17;;;;;;;5.43;4.97;;;21.50;99.90;;;;;;5033313;28;20172;-72
2023/08/15 00:38:43;;;;;;;7.20;5.13;;;21.40;99.90;;;;;;5033359;28;20171;-72
2023/08/15 00:41:09;;;;;;;6.38;5.65;;;21.40;99.90;;;;;;5033217;28;20198;-72
2023/08/15 00:43:35;;;;;;;5.70;5.03;;;21.40;99.90;;;;;;5033332;28;20192;-72
2023/08/15 00:46:03;;;;;;;9.07;5.10;;;21.40;99.90;;;;;;5033281;28;20182;-72
2023/08/15 00:48:30;;;;;;;6.55;4.90;;;21.40;99.90;;;;;;5033278;28;20625;-72
2023/08/15 00:50:58;;;;;;;6.35;5.32;;;21.40;99.90;;;;;;5033142;28;20160;-72
2023/08/15 00:53:24;;;;;;;7.75;5.18;;;21.40;99.90;;;;;;5032454;28;20214;-72
2023/08/15 00:55:54;;;;;;;6.15;5.53;;;21.40;99.90;;;;;;5033059;28;20170;-72
2023/08/15 00:58:19;;;;;;;9.07;4.82;;;21.50;99.90;;;;;;5032685;28;20191;-72
2023/08/15 01:00:45;;;;;;;6.70;5.10;;;21.40;99.90;;;;;;5032812;28;20168;-72
2023/08/15 01:03:12;;;;;;;5.25;4.85;;;21.40;99.90;;;;;;5032337;28;20211;-72
2023/08/15 01:05:39;;;;;;;5.78;4.93;;;21.40;99.90;;;;;;5032811;28;20175;-72
2023/08/15 01:08:06;;;;;;;5.60;5.00;;;21.40;99.90;;;;;;5032894;28;20199;-72
2023/08/15 01:10:31;;;;;;;6.45;5.50;;;21.30;99.90;;;;;;5032816;28;20226;-72
2023/08/15 01:13:13;;;;;;;5.90;5.40;;;21.30;99.90;;;;;;5032342;28;20598;-72
2023/08/15 01:15:44;;;;;;;5.38;4.88;;;21.20;99.90;;;;;;5032763;28;20171;-72
2023/08/15 01:18:18;;;;;;;6.45;5.88;;;21.20;99.90;;;;;;5032561;28;20672;-72
2023/08/15 01:20:46;;;;;;;5.93;5.32;;;21.10;99.90;;;;;;5032268;28;20185;-72
2023/08/15 01:23:14;;;;;;;6.25;5.28;;;21.10;99.90;;;;;;5032365;28;20579;-72
2023/08/15 01:25:41;;;;;;;5.72;5.22;;;21.00;99.90;;;;;;5032700;28;20621;-72
2023/08/15 01:28:13;;;;;;;6.60;6.00;;;21.00;99.90;;;;;;5032443;28;20183;-72
2023/08/15 01:30:56;;;;;;;6.47;5.88;;;20.90;99.90;;;;;;5032072;28;20181;-72
2023/08/15 01:33:36;;;;;;;7.93;5.65;;;20.90;99.90;;;;;;5031701;28;20257;-72
2023/08/15 01:36:07;;;;;;;6.38;5.70;;;20.80;99.90;;;;;;5032143;28;20171;-72
2023/08/15 01:38:47;;;;;;;6.13;5.60;;;20.80;99.90;;;;;;5030871;28;20183;-72
2023/08/15 01:41:18;;;;;;;7.43;6.07;;;20.90;99.90;;;;;;5031010;28;20199;-72
2023/08/15 01:43:45;;;;;;;8.73;6.70;;;20.90;99.90;;;;;;5031837;28;20191;-72
2023/08/15 01:46:12;;;;;;;7.60;6.90;;;20.90;99.90;;;;;;5031859;28;20575;-72
2023/08/15 01:48:41;;;;;;;8.25;6.65;;;21.00;99.90;;;;;;5031667;28;20172;-72
2023/08/15 01:51:08;;;;;;;7.43;6.82;;;21.10;99.90;;;;;;5031773;28;20171;-72
2023/08/15 01:53:35;;;;;;;10.55;7.43;;;21.10;99.90;;;;;;5031538;28;20239;-72
2023/08/15 01:56:02;;;;;;;7.63;6.93;;;21.20;99.90;;;;;;5031105;28;20179;-72
2023/08/15 01:58:27;;;;;;;8.85;8.10;;;21.30;99.90;;;;;;5028983;28;20729;-72
2023/08/15 02:00:53;;;;;;;8.07;7.28;;;21.30;99.90;;;;;;5031446;28;20179;-72
2023/08/15 02:03:18;;;;;;;7.95;7.25;;;21.40;99.90;;;;;;5029407;28;20245;-72
2023/08/15 02:05:44;;;;;;;7.85;6.78;;;21.50;99.90;;;;;;5031751;28;20176;-72
2023/08/15 02:08:09;;;;;;;7.63;6.03;;;21.60;99.90;;;;;;5031488;28;20180;-72
2023/08/15 02:10:35;;;;;;;6.07;5.68;;;21.60;99.90;;;;;;5031609;28;20175;-72
2023/08/15 02:13:01;;;;;;;6.20;5.70;;;21.60;99.90;;;;;;5030698;28;20286;-72
2023/08/15 02:15:26;;;;;;;6.97;6.38;;;21.70;99.90;;;;;;5031051;28;20179;-72
2023/08/15 02:17:52;;;;;;;5.78;5.22;;;21.80;99.90;;;;;;5031072;28;20206;-71
2023/08/15 02:20:17;;;;;;;5.13;4.72;;;21.80;99.90;;;;;;5031361;28;20188;-71
2023/08/15 02:22:43;;;;;;;8.35;5.28;;;21.80;99.90;;;;;;5031033;28;20207;-72
2023/08/15 02:25:09;;;;;;;5.60;5.05;;;21.70;99.90;;;;;;5031338;28;20179;-72
2023/08/15 02:27:35;;;;;;;6.15;5.18;;;21.70;99.90;;;;;;5031680;28;20183;-72
2023/08/15 02:30:00;;;;;;;5.32;4.82;;;21.70;99.90;;;;;;5031448;28;20175;-73
2023/08/15 02:32:26;;;;;;;5.43;4.93;;;21.70;99.90;;;;;;5030753;28;20270;-72
2023/08/15 02:34:52;;;;;;;4.93;4.50;;;21.70;99.90;;;;;;5031210;28;20187;-71
2023/08/15 02:37:18;;;;;;;4.43;4.10;;;21.70;99.90;;;;;;5031328;28;20222;-71
2023/08/15 02:39:43;;;;;;;5.22;4.82;;;21.70;99.90;;;;;;5031368;28;20179;-71
2023/08/15 02:42:09;;;;;;;5.63;5.07;;;21.80;99.90;;;;;;5030898;28;20203;-71
2023/08/15 02:44:34;;;;;;;5.30;4.88;;;21.80;99.90;;;;;;5031094;28;20193;-71
2023/08/15 02:47:00;;;;;;;7.38;5.30;;;21.80;99.90;;;;;;5030049;28;20622;-72
2023/08/15 02:49:26;;;;;;;6.15;5.50;;;21.70;99.90;;;;;;5031427;28;20172;-72
2023/08/15 02:51:51;;;;;;;5.47;5.07;;;21.60;99.90;;;;;;5031760;28;20539;-72
2023/08/15 02:54:17;;;;;;;6.03;5.47;;;21.40;99.90;;;;;;5035334;28;20219;-72
2023/08/15 02:56:42;;;;;;;7.47;5.35;;;21.30;99.90;;;;;;5033914;28;20243;-72
2023/08/15 02:59:08;;;;;;;7.88;5.30;;;21.10;99.90;;;;;;5035067;28;20186;-72
2023/08/15 03:01:34;;;;;;;5.90;5.30;;;21.10;99.90;;;;;;5033506;28;20664;-72
2023/08/15 03:03:59;;;;;;;6.53;5.88;;;20.90;99.90;;;;;;5034770;28;20191;-71
2023/08/15 03:06:25;;;;;;;6.20;5.60;;;20.80;99.90;;;;;;5035041;28;20171;-72
2023/08/15 03:08:50;;;;;;;6.88;6.20;;;20.80;99.90;;;;;;5034872;28;20201;-71
2023/08/15 03:11:16;;;;;;;6.60;5.90;;;20.80;99.90;;;;;;5034434;28;20179;-71
2023/08/15 03:13:41;;;;;;;6.72;6.15;;;20.70;99.90;;;;;;5034863;28;20601;-71
2023/08/15 03:16:07;;;;;;;7.45;6.28;;;20.70;99.90;;;;;;5034546;28;20179;-71
2023/08/15 03:18:33;;;;;;;6.72;5.88;;;20.70;99.90;;;;;;5035053;28;20637;-71
2023/08/15 03:21:03;;;;;;;8.95;6.28;;;20.70;99.90;;;;;;5034594;28;20262;-71
2023/08/15 03:23:29;;;;;;;9.43;7.82;;;20.70;99.90;;;;;;5034389;28;20601;-71
2023/08/15 03:25:59;;;;;;;7.60;6.93;;;20.70;99.90;;;;;;5034524;28;20172;-72
2023/08/15 03:28:25;;;;;;;10.40;7.28;;;20.70;99.90;;;;;;5033128;28;20191;-72
2023/08/15 03:30:51;;;;;;;11.10;6.70;;;20.70;99.90;;;;;;5034539;28;20175;-72
2023/08/15 03:33:18;;;;;;;11.38;7.32;;;20.80;99.90;;;;;;5034109;28;20262;-72
2023/08/15 03:35:47;;;;;;;9.48;7.50;;;20.80;99.90;;;;;;5034603;28;20168;-72
2023/08/15 03:38:17;;;;;;;10.55;7.40;;;20.80;99.90;;;;;;5034099;28;20693;-72
2023/08/15 03:40:44;;;;;;;8.65;7.80;;;20.80;99.90;;;;;;5034832;28;20175;-72
2023/08/15 03:43:10;;;;;;;8.98;7.47;;;20.80;99.90;;;;;;5033771;28;20199;-72
2023/08/15 03:45:39;;;;;;;11.00;8.27;;;20.90;99.90;;;;;;5034138;28;20697;-72
2023/08/15 03:48:06;;;;;;;8.93;8.02;;;20.90;99.90;;;;;;5034438;28;20167;-72
2023/08/15 03:50:36;;;;;;;15.57;8.18;;;20.90;99.90;;;;;;5034361;28;20182;-72
2023/08/15 03:53:02;;;;;;;8.90;7.88;;;20.90;99.90;;;;;;5033800;28;20199;-72
2023/08/15 03:55:29;;;;;;;9.57;8.02;;;20.90;99.90;;;;;;5034347;28;20176;-72
2023/08/15 03:57:55;;;;;;;10.07;8.07;;;20.80;99.90;;;;;;5034006;28;20545;-72
2023/08/15 04:00:21;;;;;;;10.18;7.97;;;20.80;99.90;;;;;;5033649;28;20262;-72
2023/08/15 04:02:47;;;;;;;9.10;7.85;;;20.80;99.90;;;;;;5033109;28;20583;-73
2023/08/15 04:05:13;;;;;;;8.98;8.05;;;20.80;99.90;;;;;;5033659;28;20167;-73
2023/08/15 04:07:39;;;;;;;12.40;8.73;;;20.80;99.90;;;;;;5034051;28;20328;-73
2023/08/15 04:10:05;;;;;;;12.15;9.80;;;20.80;99.90;;;;;;5033784;28;20194;-73
2023/08/15 04:12:33;;;;;;;12.77;8.40;;;20.80;99.90;;;;;;5033565;28;20315;-72
2023/08/15 04:14:59;;;;;;;10.90;8.52;;;20.80;99.90;;;;;;5033646;28;20657;-72
2023/08/15 04:17:25;;;;;;;14.32;8.82;;;20.80;99.90;;;;;;5033658;28;20183;-72
2023/08/15 04:19:51;;;;;;;12.73;8.52;;;20.80;99.90;;;;;;5034124;28;20179;-72
2023/08/15 04:22:16;;;;;;;11.45;8.57;;;20.80;99.90;;;;;;5033375;28;20203;-72
2023/08/15 04:24:42;;;;;;;9.27;8.30;;;20.80;99.90;;;;;;5033704;28;20562;-73
2023/08/15 04:27:07;;;;;;;12.30;8.35;;;20.80;99.90;;;;;;5033578;28;20182;-73
2023/08/15 04:29:33;;;;;;;9.68;8.68;;;20.80;99.90;;;;;;5033598;28;20730;-73
2023/08/15 04:31:58;;;;;;;12.35;8.13;;;20.80;99.90;;;;;;5032033;28;20192;-72
2023/08/15 04:34:24;;;;;;;9.75;8.50;;;20.80;99.90;;;;;;5033515;28;20222;-72
2023/08/15 04:36:50;;;;;;;14.07;8.73;;;20.90;99.90;;;;;;5033384;28;20254;-73
2023/08/15 04:39:18;;;;;;;9.38;8.48;;;21.00;99.90;;;;;;5033425;28;20171;-72
2023/08/15 04:41:43;;;;;;;10.77;8.00;;;21.00;99.90;;;;;;5033152;28;20756;-72
2023/08/15 04:44:10;;;;;;;11.13;8.55;;;21.00;99.90;;;;;;5033458;28;20209;-72
2023/08/15 04:46:36;;;;;;;10.32;8.48;;;21.00;99.90;;;;;;5033439;28;20176;-72
2023/08/15 04:49:02;;;;;;;13.73;8.80;;;21.00;99.90;;;;;;5033181;28;20534;-72
2023/08/15 04:51:27;;;;;;;11.35;9.05;;;21.00;99.90;;;;;;5032989;28;20540;-72
2023/08/15 04:53:53;;;;;;;10.30;9.18;;;21.00;99.90;;;;;;5033120;28;20257;-72
2023/08/15 04:56:18;;;;;;;10.15;8.18;;;21.00;99.90;;;;;;5033116;28;20297;-72
2023/08/15 04:58:44;;;;;;;14.88;8.30;;;21.00;99.90;;;;;;5032014;28;20221;-72
2023/08/15 05:01:10;;;;;;;8.95;7.78;;;20.90;99.90;;;;;;5032540;28;20187;-72
2023/08/15 05:03:35;;;;;;;8.23;7.43;;;20.80;99.90;;;;;;5032831;28;20227;-72
2023/08/15 05:06:02;;;;;;;8.18;7.38;;;20.80;99.90;;;;;;5032882;28;20320;-72
2023/08/15 05:08:28;;;;;;;9.35;8.40;;;20.80;99.90;;;;;;5032923;28;20583;-72
2023/08/15 05:10:54;;;;;;;11.05;8.13;;;20.80;99.90;;;;;;5032620;28;20171;-72
2023/08/15 05:13:20;;;;;;;12.10;8.43;;;20.80;99.90;;;;;;5032203;28;20194;-72
2023/08/15 05:15:46;;;;;;;13.35;8.05;;;20.80;99.90;;;;;;5031842;28;20175;-72
2023/08/15 05:18:12;;;;;;;9.40;8.30;;;20.80;99.90;;;;;;5032491;28;20167;-72
2023/08/15 05:20:38;;;;;;;10.55;9.32;;;20.80;99.90;;;;;;5031410;28;20182;-72
2023/08/15 05:23:04;;;;;;;9.93;8.93;;;20.80;99.90;;;;;;5031867;28;20210;-72
2023/08/15 05:25:30;;;;;;;14.40;9.60;;;20.90;99.90;;;;;;5032495;28;20175;-72
2023/08/15 05:27:56;;;;;;;12.27;9.07;;;20.90;99.90;;;;;;5031993;28;20191;-72
2023/08/15 05:30:22;;;;;;;14.93;8.80;;;21.00;99.90;;;;;;5032241;28;20176;-72
2023/08/15 05:32:47;;;;;;;13.23;9.07;;;21.00;99.90;;;;;;5031822;28;20590;-72
2023/08/15 05:35:13;;;;;;;11.15;8.43;;;20.90;99.90;;;;;;5032387;28;20199;-72
2023/08/15 05:37:38;;;;;;;10.70;8.80;;;21.00;99.90;;;;;;5032290;28;20167;-71
2023/08/15 05:40:05;;;;;;;9.18;8.25;;;21.10;99.90;;;;;;5032173;28;20178;-72
2023/08/15 05:42:31;;;;;;;9.90;7.55;;;21.10;99.90;;;;;;5031774;28;20215;-72
2023/08/15 05:44:56;;;;;;;9.60;8.05;;;21.10;99.90;;;;;;5031834;28;20191;-72
2023/08/15 05:47:22;;;;;;;10.88;7.78;;;21.10;99.90;;;;;;5031934;28;20171;-72
2023/08/15 05:49:47;;;;;;;8.68;7.80;;;21.10;99.90;;;;;;5032015;28;20163;-72
2023/08/15 05:52:13;;;;;;;11.65;8.85;;;21.00;99.90;;;;;;5031643;28;20321;-72
2023/08/15 05:54:39;;;;;;;12.18;7.72;;;20.90;99.90;;;;;;5032053;28;20194;-72
2023/08/15 05:57:05;;;;;;;9.35;7.45;;;20.90;99.90;;;;;;5031564;28;20210;-72
2023/08/15 05:59:30;;;;;;;9.05;8.13;;;20.80;99.90;;;;;;5031699;28;20550;-72
2023/08/15 06:01:56;;;;;;;10.02;7.60;;;20.60;99.90;;;;;;5031402;28;20245;-72
2023/08/15 06:04:22;;;;;;;9.68;7.43;;;20.50;99.90;;;;;;5031411;28;20199;-71
2023/08/15 06:06:47;;;;;;;14.27;8.52;;;20.50;99.90;;;;;;5031811;28;20179;-71
2023/08/15 06:09:13;;;;;;;12.57;8.60;;;20.50;99.90;;;;;;5029843;28;20700;-71
2023/08/15 06:11:39;;;;;;;15.73;8.50;;;20.50;99.90;;;;;;5031478;28;20179;-71
2023/08/15 06:14:04;;;;;;;14.30;9.05;;;20.50;99.90;;;;;;5029332;28;20272;-72
2023/08/15 06:16:30;;;;;;;10.48;8.55;;;20.50;99.90;;;;;;5031643;28;20194;-71
2023/08/15 06:18:56;;;;;;;16.60;9.80;;;20.50;99.90;;;;;;5031482;28;20179;-71
2023/08/15 06:21:21;;;;;;;12.50;9.30;;;20.60;99.90;;;;;;5031216;28;20222;-71
2023/08/15 06:23:47;;;;;;;13.63;9.88;;;20.60;99.90;;;;;;5036075;28;20195;-72
2023/08/15 06:26:12;;;;;;;13.50;9.30;;;20.70;99.90;;;;;;5039430;28;20179;-72
2023/08/15 06:28:38;;;;;;;9.10;8.27;;;20.90;99.90;;;;;;5039252;28;20187;-72
2023/08/15 06:31:04;;;;;;;12.68;9.13;;;21.00;99.90;;;;;;5040188;28;20167;-71
2023/08/15 06:33:30;;;;;;;9.63;8.70;;;21.10;99.90;;;;;;5039656;28;20194;-72
2023/08/15 06:35:55;;;;;;;11.68;8.20;;;21.10;99.90;;;;;;5039396;28;20172;-72
2023/08/15 06:38:21;;;;;;;12.40;8.70;;;21.00;99.90;;;;;;5038589;28;20175;-71
2023/08/15 06:40:47;;;;;;;10.25;8.68;;;20.90;99.90;;;;;;5037534;28;20174;-72
2023/08/15 06:43:13;;;;;;;11.50;8.30;;;20.90;99.90;;;;;;5030655;28;20295;-71
2023/08/15 06:45:38;;;;;;;10.65;8.02;;;21.00;99.90;;;;;;5031647;28;20258;-72
2023/08/15 06:48:05;;;;;;;12.50;8.63;;;21.00;99.90;;;;;;5031336;28;20167;-72
2023/08/15 06:50:31;;;;;;;15.50;9.00;;;21.00;99.90;;;;;;5030936;28;20245;-72
2023/08/15 06:52:57;;;;;;;13.02;10.27;;;21.00;99.90;;;;;;5030693;28;20237;-72
2023/08/15 06:55:23;;;;;;;13.20;9.85;;;21.10;99.90;;;;;;5031004;28;20183;-72
2023/08/15 06:57:49;;;;;;;13.75;8.55;;;21.10;99.90;;;;;;5030994;28;20175;-71
2023/08/15 07:00:16;;;;;;;12.27;8.35;;;21.20;99.90;;;;;;5030677;28;20186;-71
2023/08/15 07:02:41;;;;;;;16.38;9.20;;;21.20;99.90;;;;;;5030514;28;20253;-71
2023/08/15 07:05:08;;;;;;;13.68;8.90;;;21.10;99.90;;;;;;5030634;28;20164;-72
2023/08/15 07:07:34;;;;;;;12.15;9.15;;;21.10;99.90;;;;;;5030844;28;20167;-72
2023/08/15 07:10:00;;;;;;;11.52;9.50;;;21.10;99.90;;;;;;5030944;28;20167;-72
2023/08/15 07:12:26;;;;;;;10.95;9.05;;;21.10;99.90;;;;;;5029002;28;20182;-71
2023/08/15 07:14:51;;;;;;;10.85;8.43;;;21.10;99.90;;;;;;5030463;28;20195;-72
2023/08/15 07:17:17;;;;;;;10.50;8.38;;;21.10;99.90;;;;;;5030548;28;20179;-72
2023/08/15 07:19:42;;;;;;;8.27;7.45;;;21.20;99.90;;;;;;5030520;28;20182;-72
2023/08/15 07:22:08;;;;;;;7.82;6.43;;;21.30;99.90;;;;;;5030157;28;20333;-71
2023/08/15 07:24:34;;;;;;;7.97;6.22;;;21.40;99.90;;;;;;5030582;28;20192;-71
2023/08/15 07:26:59;;;;;;;7.18;6.28;;;21.50;99.90;;;;;;5030527;28;20638;-71
2023/08/15 07:29:25;;;;;;;9.35;6.30;;;21.60;99.90;;;;;;5029314;28;20195;-71
2023/08/15 07:31:51;;;;;;;7.18;5.43;;;21.70;99.90;;;;;;5030833;28;20184;-71
2023/08/15 07:34:16;;;;;;;6.72;5.40;;;21.90;99.90;;;;;;5030378;28;20278;-71
2023/08/15 07:36:42;;;;;;;6.65;4.68;;;21.90;99.90;;;;;;5030685;28;20257;-71
2023/08/15 07:39:09;;;;;;;5.80;4.15;;;21.90;99.90;;;;;;5032743;28;20634;-71
2023/08/15 07:41:35;;;;;;;6.00;4.68;;;22.00;99.90;;;;;;5033753;28;20202;-72
2023/08/15 07:44:01;;;;;;;5.32;4.32;;;22.10;99.90;;;;;;5032859;28;20567;-72
2023/08/15 07:46:27;;;;;;;6.53;4.55;;;22.20;99.90;;;;;;5033233;28;20175;-72
2023/08/15 07:48:54;;;;;;;4.88;4.05;;;22.30;99.90;;;;;;5033693;28;20536;-72
2023/08/15 07:51:20;;;;;;;5.05;4.55;;;22.40;99.90;;;;;;5033118;28;20175;-72
2023/08/15 07:53:46;;;;;;;4.82;4.25;;;22.50;99.90;;;;;;5033069;28;20195;-72
2023/08/15 07:56:11;;;;;;;3.92;3.58;;;22.50;99.90;;;;;;5033115;28;20250;-72
2023/08/15 07:58:37;;;;;;;6.60;4.35;;;22.50;99.90;;;;;;5034087;28;20190;-72
2023/08/15 08:01:03;;;;;;;4.32;3.53;;;22.60;99.90;;;;;;5032917;28;20171;-72
2023/08/15 08:03:29;;;;;;;6.75;4.28;;;22.60;99.90;;;;;;5032101;28;20347;-72
2023/08/15 08:05:54;;;;;;;4.93;4.47;;;22.60;99.90;;;;;;5033859;28;20171;-72
2023/08/15 08:08:20;;;;;;;6.72;4.60;;;22.60;99.90;;;;;;5033375;28;20183;-72
2023/08/15 08:10:46;;;;;;;8.52;4.50;;;22.60;99.90;;;;;;5033530;28;20178;-72
2023/08/15 08:13:16;;;;;;;4.90;4.10;;;22.70;99.90;;;;;;5032556;28;20246;-72
2023/08/15 08:15:42;;;;;;;7.85;4.38;;;22.60;99.90;;;;;;5033644;28;20171;-72
2023/08/15 08:18:08;;;;;;;6.15;4.57;;;22.70;99.90;;;;;;5033446;28;20183;-71
2023/08/15 08:20:34;;;;;;;5.25;4.10;;;22.80;99.90;;;;;;5033657;28;20175;-71
2023/08/15 08:23:00;;;;;;;5.38;4.32;;;22.90;99.90;;;;;;5032470;28;20203;-71
2023/08/15 08:25:26;;;;;;;5.28;4.15;;;23.10;99.90;;;;;;5031928;28;20522;-71
2023/08/15 08:27:52;;;;;;;5.72;4.43;;;23.20;99.90;;;;;;5033348;28;20553;-71
2023/08/15 08:30:20;;;;;;;5.47;4.45;;;23.40;99.90;;;;;;5031929;28;20174;-71
2023/08/15 08:32:46;;;;;;;5.75;4.20;;;23.40;99.90;;;;;;5033014;28;20218;-71
2023/08/15 08:35:15;;;;;;;6.00;4.75;;;23.50;99.90;;;;;;5031243;28;20207;-71
2023/08/15 08:37:41;;;;;;;9.23;4.82;;;23.60;99.90;;;;;;5033279;28;20182;-71
2023/08/15 08:40:09;;;;;;;5.22;4.55;;;23.50;99.90;;;;;;5032787;28;20184;-72
2023/08/15 08:42:35;;;;;;;8.32;4.55;;;23.50;99.90;;;;;;5032982;28;20210;-72
2023/08/15 08:45:02;;;;;;;8.20;4.90;;;23.50;99.90;;;;;;5033008;28;20534;-71
2023/08/15 08:47:30;;;;;;;5.93;4.43;;;23.60;99.90;;;;;;5032851;28;20185;-71
2023/08/15 08:49:58;;;;;;;8.80;5.55;;;23.60;99.90;;;;;;5031968;28;20175;-71
2023/08/15 08:52:25;;;;;;;6.30;4.95;;;23.60;99.90;;;;;;5032580;28;20171;-71
2023/08/15 08:54:50;;;;;;;9.77;4.68;;;23.70;99.90;;;;;;5032642;28;20233;-72
2023/08/15 08:57:18;;;;;;;6.47;4.70;;;23.70;99.90;;;;;;5032384;28;20171;-72
2023/08/15 08:59:45;;;;;;;5.60;4.88;;;23.80;99.90;;;;;;5032646;28;20270;-71
2023/08/15 09:02:14;;;;;;;8.68;4.65;;;24.00;99.90;;;;;;5032455;28;20282;-72
2023/08/15 09:04:41;;;;;;;7.72;5.43;;;24.20;99.90;;;;;;5032799;28;20603;-71
2023/08/15 09:07:06;;;;;;;12.85;5.10;;;24.40;99.90;;;;;;5032477;28;20217;-71
2023/08/15 09:09:32;;;;;;;8.15;5.50;;;24.60;99.90;;;;;;5032443;28;20203;-71
2023/08/15 09:11:58;;;;;;;6.32;4.88;;;24.80;99.90;;;;;;5032336;28;20172;-71
2023/08/15 09:14:23;;;;;;;4.88;4.30;;;24.80;99.90;;;;;;5032334;28;20199;-72
2023/08/15 09:16:49;;;;;;;6.07;4.45;;;24.70;99.90;;;;;;5032432;28;20225;-72
2023/08/15 09:19:16;;;;;;;8.68;4.65;;;24.60;99.90;;;;;;5032096;28;20225;-72
2023/08/15 09:21:42;;;;;;;9.27;4.35;;;24.40;99.90;;;;;;5031938;28;20542;-72
2023/08/15 09:24:08;;;;;;;8.77;4.43;;;24.50;99.90;;;;;;5032027;28;20218;-71
2023/08/15 09:26:35;;;;;;;6.50;4.50;;;24.70;99.90;;;;;;5032578;28;20452;-72
2023/08/15 09:29:04;;;;;;;7.38;4.45;;;24.90;99.90;;;;;;5032241;28;20252;-72
2023/08/15 09:31:30;;;;;;;6.47;4.35;;;25.00;99.90;;;;;;5031894;28;20175;-72
2023/08/15 09:33:56;;;;;;;8.75;4.53;;;25.10;99.90;;;;;;5031860;28;20194;-72
2023/08/15 09:36:27;;;;;;;5.20;4.20;;;25.20;99.90;;;;;;5031455;28;20179;-72
2023/08/15 09:38:59;;;;;;;4.85;3.88;;;25.20;99.90;;;;;;5032176;28;20175;-72
2023/08/15 09:41:25;;;;;;;6.80;4.38;;;25.30;99.90;;;;;;5031593;28;20539;-72
2023/08/15 09:43:52;;;;;;;5.43;3.95;;;25.40;99.90;;;;;;5031936;28;20191;-72
2023/08/15 09:46:19;;;;;;;4.93;3.78;;;25.60;99.90;;;;;;5031864;28;20164;-72
2023/08/15 09:48:48;;;;;;;4.80;4.20;;;25.70;99.90;;;;;;5032773;28;20715;-72
2023/08/15 09:51:16;;;;;;;7.68;3.83;;;25.90;99.90;;;;;;5031307;28;20175;-72
2023/08/15 09:53:43;;;;;;;4.03;3.45;;;26.10;99.90;;;;;;5030574;28;20695;-72
2023/08/15 09:56:09;;;;;;;4.53;3.25;;;26.20;99.90;;;;;;5031680;28;20203;-72
2023/08/15 09:58:35;;;;;;;5.53;4.07;;;26.20;99.90;;;;;;5029512;28;20217;-72
2023/08/15 10:01:03;;;;;;;3.92;3.53;;;26.30;99.90;;;;;;5031407;28;20171;-72
2023/08/15 10:03:40;;;;;;;5.78;3.03;;;26.50;99.90;;;;;;5030849;28;20225;-72
2023/08/15 10:06:09;;;;;;;5.18;2.90;;;26.80;99.90;;;;;;5031674;28;20175;-72
2023/08/15 10:08:40;;;;;;;3.50;3.20;;;27.00;99.90;;;;;;5031614;28;20195;-72
2023/08/15 10:11:08;;;;;;;3.78;3.38;;;27.20;99.90;;;;;;5031493;28;20167;-73
2023/08/15 10:13:36;;;;;;;5.25;3.30;;;27.40;99.90;;;;;;5031199;28;20732;-72
2023/08/15 10:16:04;;;;;;;4.93;3.40;;;27.60;99.90;;;;;;5031382;28;20171;-72
2023/08/15 10:18:30;;;;;;;5.43;3.40;;;27.80;99.90;;;;;;5031389;28;20172;-72
2023/08/15 10:20:56;;;;;;;3.50;3.17;;;28.00;99.90;;;;;;5030068;28;20175;-73
2023/08/15 10:23:36;;;;;;;3.50;3.05;;;28.10;99.90;;;;;;5030445;28;20302;-72
2023/08/15 10:26:02;;;;;;;8.13;4.60;;;28.20;99.90;;;;;;5031229;28;20529;-72
2023/08/15 10:28:33;;;;;;;7.38;4.75;;;28.40;99.90;;;;;;5030930;28;20271;-73
2023/08/15 10:30:59;;;;;;;7.65;7.15;;;28.50;99.90;;;;;;5030110;28;20178;-72
2023/08/15 10:33:28;;;;;;;5.30;3.33;;;28.30;99.90;;;;;;5029361;28;20732;-72
2023/08/15 10:35:54;;;;;;;4.40;4.00;;;28.20;99.90;;;;;;5031354;28;20597;-72
2023/08/15 10:38:35;;;;;;;6.45;4.65;;;28.20;99.90;;;;;;5030993;28;20195;-72
2023/08/15 10:41:21;;;;;;;5.35;4.10;;;28.20;99.90;;;;;;5031280;28;20178;-72
2023/08/15 10:43:55;;;;;;;7.05;4.50;;;28.30;99.90;;;;;;5031250;28;20294;-72
2023/08/15 10:46:28;;;;;;;7.03;4.82;;;28.40;99.90;;;;;;5031033;28;20233;-72
2023/08/15 10:48:58;;;;;;;4.28;3.88;;;28.40;99.90;;;;;;5031072;28;20174;-72
2023/08/15 10:51:35;;;;;;;5.93;5.38;;;28.30;99.90;;;;;;5030562;28;20198;-72
2023/08/15 10:54:06;;;;;;;6.68;4.30;;;28.30;99.90;;;;;;5030444;28;20194;-72
2023/08/15 10:56:39;;;;;;;5.43;4.15;;;28.40;99.90;;;;;;5030859;28;20168;-72
2023/08/15 10:59:14;;;;;;;4.72;3.72;;;28.40;99.90;;;;;;5029776;28;20183;-72
2023/08/15 11:01:41;;;;;;;4.93;4.40;;;28.50;99.90;;;;;;5030679;28;20563;-72
2023/08/15 11:04:09;;;;;;;4.57;3.72;;;28.40;99.90;;;;;;5030034;28;20696;-71
2023/08/15 11:06:48;;;;;;;5.00;3.05;;;28.50;99.90;;;;;;5030373;28;20672;-71
2023/08/15 11:09:14;;;;;;;4.85;3.10;;;28.70;99.90;;;;;;5031001;28;20179;-71
2023/08/15 11:11:40;;;;;;;5.22;2.97;;;29.10;99.90;;;;;;5030749;28;20176;-71
2023/08/15 11:14:18;;;;;;;4.28;3.88;;;29.40;99.90;;;;;;5033546;28;20222;-72
2023/08/15 11:16:47;;;;;;;4.07;3.38;;;29.50;99.90;;;;;;5034902;28;20664;-72
2023/08/15 11:19:19;;;;;;;3.20;2.97;;;29.60;99.90;;;;;;5034512;28;20197;-72
2023/08/15 11:21:46;;;;;;;5.60;5.10;;;29.80;99.90;;;;;;5034076;28;20254;-72
2023/08/15 11:24:12;;;;;;;5.72;3.67;;;29.80;99.90;;;;;;5032914;28;20191;-72
2023/08/15 11:26:37;;;;;;;5.65;4.00;;;29.80;99.90;;;;;;5032966;28;20630;-72
2023/08/15 11:29:03;;;;;;;4.00;3.70;;;29.70;99.90;;;;;;5034426;28;20619;-71
2023/08/15 11:31:30;;;;;;;3.90;3.38;;;29.80;99.90;;;;;;5034070;28;20186;-72
2023/08/15 11:33:59;;;;;;;4.00;3.60;;;29.90;99.90;;;;;;5033967;28;20204;-72
2023/08/15 11:36:24;;;;;;;4.88;3.67;;;29.90;99.90;;;;;;5034111;28;20163;-73
2023/08/15 11:38:50;;;;;;;4.68;3.67;;;29.90;99.90;;;;;;5032455;28;20187;-72
2023/08/15 11:41:16;;;;;;;4.70;4.18;;;29.90;99.90;;;;;;5033918;28;20613;-72
2023/08/15 11:43:42;;;;;;;4.63;2.92;;;29.90;99.90;;;;;;5034194;28;20200;-72
2023/08/15 11:46:07;;;;;;;7.97;3.40;;;29.80;99.90;;;;;;5034121;28;20168;-72
2023/08/15 11:48:34;;;;;;;5.80;3.55;;;29.60;99.90;;;;;;5033396;28;20179;-71
2023/08/15 11:51:00;;;;;;;6.45;3.40;;;29.50;99.90;;;;;;5034234;28;20202;-72
2023/08/15 11:53:26;;;;;;;5.78;5.22;;;29.40;99.90;;;;;;5033303;28;20283;-72
2023/08/15 11:55:53;;;;;;;5.45;4.97;;;29.20;99.90;;;;;;5033505;28;20603;-72
2023/08/15 11:58:29;;;;;;;4.95;4.40;;;29.20;99.90;;;;;;5033781;28;20652;-71
2023/08/15 12:00:57;;;;;;;5.80;3.70;;;29.40;99.90;;;;;;5033834;28;20187;-72
2023/08/15 12:03:26;;;;;;;8.13;4.55;;;29.60;99.90;;;;;;5033010;28;20203;-72
2023/08/15 12:05:56;;;;;;;6.47;4.38;;;29.70;99.90;;;;;;5033782;28;20164;-72
2023/08/15 12:08:29;;;;;;;4.13;3.72;;;29.60;99.90;;;;;;5033616;28;20171;-72
2023/08/15 12:10:58;;;;;;;4.97;4.30;;;29.70;99.90;;;;;;5032310;28;20617;-71
2023/08/15 12:13:38;;;;;;;6.50;5.90;;;29.90;99.90;;;;;;5032985;28;20211;-71
2023/08/15 12:16:04;;;;;;;5.60;5.15;;;29.90;99.90;;;;;;5033613;28;20179;-71
2023/08/15 12:18:31;;;;;;;5.53;5.03;;;29.80;99.90;;;;;;5033588;28;20179;-71
2023/08/15 12:20:57;;;;;;;5.28;3.13;;;29.50;99.90;;;;;;5033473;28;20172;-71
2023/08/15 12:23:23;;;;;;;5.47;4.95;;;29.50;99.90;;;;;;5032451;28;20706;-71
2023/08/15 12:25:49;;;;;;;4.43;3.70;;;29.90;99.90;;;;;;5033123;28;20667;-71
2023/08/15 12:28:15;;;;;;;5.05;4.65;;;30.20;99.90;;;;;;5032893;28;20197;-71
2023/08/15 12:30:41;;;;;;;6.25;4.10;;;30.50;99.90;;;;;;5033606;28;20168;-71
2023/08/15 12:33:07;;;;;;;6.22;4.30;;;30.90;99.90;;;;;;5032846;28;20552;-71
2023/08/15 12:35:33;;;;;;;7.70;4.95;;;31.00;99.90;;;;;;5033267;28;20175;-71
2023/08/15 12:37:58;;;;;;;5.78;4.20;;;30.80;99.90;;;;;;5033312;28;20547;-71
2023/08/15 12:40:25;;;;;;;6.07;3.25;;;30.60;99.90;;;;;;5032996;28;20180;-71
2023/08/15 12:42:51;;;;;;;6.15;4.53;;;30.30;99.90;;;;;;5032636;28;20298;-71
2023/08/15 12:45:17;;;;;;;4.13;3.83;;;30.20;99.90;;;;;;5030866;28;20262;-71